createdAt,value
2019-02-28T00:00:50.829Z,14.38
2019-02-28T00:03:20.345Z,14.85
2019-02-28T00:05:48.970Z,14.55
2019-02-28T00:08:17.403Z,15.63
2019-02-28T00:10:45.840Z,15.15
2019-02-28T00:13:14.296Z,14.03
2019-02-28T00:15:42.782Z,15.00
2019-02-28T00:18:15.195Z,14.55
2019-02-28T00:20:41.560Z,14.28
2019-02-28T00:23:10.102Z,14.53
2019-02-28T00:25:38.691Z,13.43
2019-02-28T00:28:07.126Z,13.32
2019-02-28T00:30:37.440Z,14.23
2019-02-28T00:33:06.012Z,14.07
2019-02-28T00:35:34.415Z,12.93
2019-02-28T00:38:02.927Z,13.60
2019-02-28T00:40:31.468Z,13.48
2019-02-28T00:42:59.967Z,13.88
2019-02-28T00:45:28.420Z,13.50
2019-02-28T00:47:56.846Z,14.25
2019-02-28T00:50:27.658Z,14.18
2019-02-28T00:52:55.430Z,13.50
2019-02-28T00:55:23.907Z,13.05
2019-02-28T00:57:55.366Z,13.30
2019-02-28T01:00:22.617Z,13.35
2019-02-28T01:02:53.494Z,12.28
2019-02-28T01:05:21.317Z,12.65
2019-02-28T01:07:49.813Z,14.30
2019-02-28T01:10:18.359Z,12.47
2019-02-28T01:12:46.803Z,12.82
2019-02-28T01:15:16.459Z,12.43
2019-02-28T01:17:45.058Z,12.95
2019-02-28T01:20:16.020Z,13.13
2019-02-28T01:22:43.962Z,13.25
2019-02-28T01:25:16.870Z,13.48
2019-02-28T01:27:45.347Z,13.80
2019-02-28T01:30:19.263Z,13.80
2019-02-28T01:32:50.945Z,15.40
2019-02-28T01:35:17.915Z,14.87
2019-02-28T01:37:46.336Z,15.13
2019-02-28T01:40:15.210Z,15.55
2019-02-28T01:42:44.655Z,15.15
2019-02-28T01:45:13.802Z,15.38
2019-02-28T01:47:42.283Z,14.68
2019-02-28T01:50:14.060Z,16.30
2019-02-28T01:52:45.912Z,16.32
2019-02-28T01:55:12.793Z,16.90
2019-02-28T01:57:43.744Z,18.05
2019-02-28T02:00:14.341Z,16.97
2019-02-28T02:02:42.846Z,17.75
2019-02-28T02:05:11.463Z,17.75
2019-02-28T02:07:39.979Z,18.15
2019-02-28T02:10:13.154Z,17.67
2019-02-28T02:12:41.838Z,17.12
2019-02-28T02:15:11.645Z,18.57
2019-02-28T02:17:40.042Z,17.48
2019-02-28T02:20:10.938Z,18.07
2019-02-28T02:22:40.749Z,17.70
2019-02-28T02:25:10.297Z,17.45
2019-02-28T02:27:38.785Z,17.35
2019-02-28T02:30:17.896Z,18.77
2019-02-28T02:32:47.630Z,18.45
2019-02-28T02:35:16.059Z,18.27
2019-02-28T02:37:44.511Z,19.82
2019-02-28T02:40:16.660Z,19.62
2019-02-28T02:42:48.483Z,19.30
2019-02-28T02:45:15.573Z,19.90
2019-02-28T02:47:44.044Z,19.50
2019-02-28T02:50:35.739Z,18.55
2019-02-28T02:53:05.543Z,19.25
2019-02-28T02:55:33.785Z,18.67
2019-02-28T02:58:02.295Z,19.87
2019-02-28T03:00:30.759Z,19.48
2019-02-28T03:02:59.199Z,19.57
2019-02-28T03:05:34.937Z,19.40
2019-02-28T03:07:59.855Z,19.05
2019-02-28T03:10:27.963Z,19.10
2019-02-28T03:12:56.456Z,20.50
2019-02-28T03:15:27.125Z,19.55
2019-02-28T03:17:55.168Z,19.98
2019-02-28T03:20:23.613Z,18.00
2019-02-28T03:22:52.065Z,19.07
2019-02-28T03:25:27.741Z,19.77
2019-02-28T03:27:55.071Z,17.65
2019-02-28T03:30:28.997Z,18.02
2019-02-28T03:32:51.393Z,16.90
2019-02-28T03:35:19.859Z,16.95
2019-02-28T03:37:48.351Z,18.52
2019-02-28T03:40:16.949Z,17.75
2019-02-28T03:42:45.356Z,16.40
2019-02-28T03:45:35.172Z,16.35
2019-02-28T03:48:03.512Z,17.05
2019-02-28T03:50:31.934Z,17.95
2019-02-28T03:53:00.395Z,18.37
2019-02-28T03:55:28.884Z,18.15
2019-02-28T03:58:04.112Z,16.85
2019-02-28T04:00:32.384Z,17.82
2019-02-28T04:02:59.115Z,17.45
2019-02-28T04:05:28.445Z,18.32
2019-02-28T04:07:57.204Z,18.25
2019-02-28T04:10:25.622Z,18.85
2019-02-28T04:12:54.063Z,18.30
2019-02-28T04:15:22.601Z,17.40
2019-02-28T04:17:51.063Z,17.87
2019-02-28T04:20:19.518Z,19.30
2019-02-28T04:22:47.986Z,18.77
2019-02-28T04:25:22.821Z,18.67
2019-02-28T04:27:46.709Z,17.57
2019-02-28T04:30:15.701Z,18.50
2019-02-28T04:32:44.150Z,18.12
2019-02-28T04:35:12.958Z,18.45
2019-02-28T04:37:46.960Z,19.12
2019-02-28T04:40:14.655Z,18.30
2019-02-28T04:42:43.226Z,18.92
2019-02-28T04:45:13.249Z,17.52
2019-02-28T04:47:41.903Z,18.27
2019-02-28T04:50:15.308Z,17.85
2019-02-28T04:52:47.129Z,17.87
2019-02-28T04:55:14.056Z,19.42
2019-02-28T04:57:42.497Z,17.52
2019-02-28T05:00:16.033Z,18.75
2019-02-28T05:02:44.478Z,18.10
2019-02-28T05:05:13.725Z,17.90
2019-02-28T05:07:42.797Z,17.40
2019-02-28T05:10:12.482Z,17.27
2019-02-28T05:12:41.241Z,17.27
2019-02-28T05:15:14.251Z,17.60
2019-02-28T05:17:42.843Z,17.82
2019-02-28T05:20:12.179Z,17.82
2019-02-28T05:22:40.930Z,17.95
2019-02-28T05:25:11.278Z,17.67
2019-02-28T05:27:45.876Z,17.07
2019-02-28T05:30:19.661Z,17.95
2019-02-28T05:32:48.266Z,18.27
2019-02-28T05:35:16.743Z,17.75
2019-02-28T05:37:48.204Z,20.12
2019-02-28T05:40:16.054Z,24.65
2019-02-28T05:42:44.621Z,21.25
2019-02-28T05:45:14.845Z,20.00
2019-02-28T05:47:46.932Z,18.73
2019-02-28T05:50:16.677Z,18.23
2019-02-28T05:52:44.554Z,18.95
2019-02-28T05:55:13.154Z,18.82
2019-02-28T05:57:43.575Z,18.35
2019-02-28T06:00:17.929Z,18.87
2019-02-28T06:02:46.376Z,18.82
2019-02-28T06:05:14.851Z,19.15
2019-02-28T06:07:43.410Z,19.23
2019-02-28T06:10:15.778Z,19.42
2019-02-28T06:12:44.980Z,19.95
2019-02-28T06:15:17.016Z,18.92
2019-02-28T06:17:45.427Z,19.12
2019-02-28T06:20:17.716Z,19.20
2019-02-28T06:22:45.384Z,18.23
2019-02-28T06:25:22.651Z,18.50
2019-02-28T06:27:49.141Z,19.45
2019-02-28T06:30:16.597Z,19.20
2019-02-28T06:32:45.067Z,18.50
2019-02-28T06:35:17.695Z,19.12
2019-02-28T06:37:43.796Z,19.15
2019-02-28T06:40:14.362Z,19.92
2019-02-28T06:42:43.515Z,19.37
2019-02-28T06:45:15.625Z,21.02
2019-02-28T06:47:48.043Z,20.40
2019-02-28T06:50:33.594Z,18.80
2019-02-28T06:53:04.779Z,19.40
2019-02-28T06:55:33.205Z,18.98
2019-02-28T06:58:01.645Z,19.82
2019-02-28T07:00:30.154Z,19.25
2019-02-28T07:02:58.582Z,19.40
2019-02-28T07:05:26.993Z,20.23
2019-02-28T07:07:55.458Z,19.30
2019-02-28T07:10:23.903Z,19.45
2019-02-28T07:12:52.394Z,19.50
2019-02-28T07:15:24.850Z,19.75
2019-02-28T07:17:51.012Z,19.57
2019-02-28T07:20:20.006Z,19.65
2019-02-28T07:22:51.660Z,19.42
2019-02-28T07:25:18.721Z,21.25
2019-02-28T07:27:47.193Z,20.08
2019-02-28T07:30:19.104Z,19.50
2019-02-28T07:32:48.020Z,19.30
2019-02-28T07:35:16.498Z,20.37
2019-02-28T07:37:45.002Z,19.42
2019-02-28T07:40:16.390Z,19.52
2019-02-28T07:42:45.090Z,19.95
2019-02-28T07:45:15.554Z,20.82
2019-02-28T07:47:44.150Z,20.05
2019-02-28T07:50:14.150Z,19.50
2019-02-28T07:52:42.645Z,19.45
2019-02-28T07:55:16.374Z,19.07
2019-02-28T07:57:44.909Z,20.02
2019-02-28T08:00:21.442Z,19.35
2019-02-28T08:02:50.323Z,20.75
2019-02-28T08:05:18.923Z,20.50
2019-02-28T08:07:52.008Z,21.17
2019-02-28T08:10:26.258Z,20.25
2019-02-28T08:12:54.677Z,20.37
2019-02-28T08:15:25.354Z,20.20
2019-02-28T08:17:53.888Z,20.88
2019-02-28T08:20:22.455Z,21.57
2019-02-28T08:22:51.057Z,21.23
2019-02-28T08:25:19.820Z,21.27
2019-02-28T08:27:48.262Z,20.70
2019-02-28T08:30:20.565Z,21.73
2019-02-28T08:32:49.634Z,22.22
2019-02-28T08:35:18.114Z,22.02
2019-02-28T08:37:46.574Z,21.75
2019-02-28T08:40:26.946Z,22.20
2019-02-28T08:42:55.893Z,22.13
2019-02-28T08:45:24.457Z,22.25
2019-02-28T08:47:56.812Z,22.87
2019-02-28T08:50:24.126Z,22.35
2019-02-28T08:52:57.368Z,23.47
2019-02-28T08:55:29.053Z,22.85
2019-02-28T08:58:03.990Z,23.07
2019-02-28T09:00:31.056Z,23.75
2019-02-28T09:02:56.945Z,24.02
2019-02-28T09:05:26.671Z,24.67
2019-02-28T09:07:55.651Z,70.85
2019-02-28T09:10:25.341Z,34.63
2019-02-28T09:12:53.946Z,32.23
2019-02-28T09:15:22.586Z,56.73
2019-02-28T09:17:51.101Z,26.55
2019-02-28T09:20:19.728Z,24.65
2019-02-28T09:22:48.233Z,24.60
2019-02-28T09:25:24.476Z,27.37
2019-02-28T09:27:54.516Z,30.00
2019-02-28T09:30:40.402Z,26.02
2019-02-28T09:33:08.890Z,26.25
2019-02-28T09:35:37.349Z,25.82
2019-02-28T09:38:07.649Z,30.27
2019-02-28T09:40:36.058Z,71.40
2019-02-28T09:43:04.574Z,26.20
2019-02-28T09:45:34.330Z,26.90
2019-02-28T09:48:02.861Z,28.23
2019-02-28T09:50:33.026Z,28.87
2019-02-28T09:53:01.724Z,36.53
2019-02-28T09:55:34.046Z,27.80
2019-02-28T09:58:00.301Z,27.40
2019-02-28T10:00:29.800Z,26.75
2019-02-28T10:02:58.456Z,28.70
2019-02-28T10:05:26.866Z,28.40
2019-02-28T10:08:01.592Z,27.40
2019-02-28T10:10:27.962Z,28.47
2019-02-28T10:12:56.986Z,29.42
2019-02-28T10:15:25.817Z,29.52
2019-02-28T10:17:54.390Z,28.85
2019-02-28T10:20:32.938Z,27.37
2019-02-28T10:23:04.166Z,28.80
2019-02-28T10:25:32.682Z,30.88
2019-02-28T10:28:02.777Z,27.50
2019-02-28T10:30:32.691Z,30.05
2019-02-28T10:33:01.331Z,29.77
2019-02-28T10:35:29.810Z,29.63
2019-02-28T10:37:58.918Z,28.17
2019-02-28T10:40:28.702Z,29.60
2019-02-28T10:42:57.355Z,28.90
2019-02-28T10:45:26.541Z,29.52
2019-02-28T10:47:55.041Z,32.05
2019-02-28T10:50:32.136Z,31.55
2019-02-28T10:53:04.095Z,30.75
2019-02-28T10:55:29.297Z,31.35
2019-02-28T10:57:57.802Z,32.48
2019-02-28T11:00:32.728Z,30.92
2019-02-28T11:03:02.606Z,30.90
2019-02-28T11:05:32.903Z,31.68
2019-02-28T11:08:01.943Z,30.65
2019-02-28T11:10:37.113Z,29.37
2019-02-28T11:13:08.419Z,30.27
2019-02-28T11:15:36.920Z,30.95
2019-02-28T11:18:09.633Z,28.10
2019-02-28T11:20:36.996Z,28.27
2019-02-28T11:23:07.555Z,29.52
2019-02-28T11:25:36.321Z,29.40
2019-02-28T11:28:05.312Z,28.10
2019-02-28T11:30:36.081Z,28.02
2019-02-28T11:33:05.105Z,26.20
2019-02-28T11:35:33.678Z,28.57
2019-02-28T11:38:02.307Z,27.77
2019-02-28T11:40:30.919Z,27.95
2019-02-28T11:43:02.738Z,27.87
2019-02-28T11:45:43.269Z,26.60
2019-02-28T11:48:36.710Z,25.92
2019-02-28T11:51:05.337Z,27.20
2019-02-28T11:53:39.306Z,25.25
2019-02-28T11:56:04.173Z,27.27
2019-02-28T11:58:32.626Z,26.90
2019-02-28T12:01:02.314Z,27.70
2019-02-28T12:03:31.819Z,27.27
2019-02-28T12:06:01.175Z,28.60
2019-02-28T12:08:29.847Z,27.98
2019-02-28T12:11:01.802Z,26.87
2019-02-28T12:13:28.595Z,28.23
2019-02-28T12:15:57.101Z,27.45
2019-02-28T12:18:27.038Z,27.73
2019-02-28T12:20:55.454Z,27.77
2019-02-28T12:23:24.385Z,28.25
2019-02-28T12:25:53.016Z,26.95
2019-02-28T12:28:21.570Z,28.25
2019-02-28T12:30:50.167Z,28.00
2019-02-28T12:33:22.197Z,25.62
2019-02-28T12:35:48.815Z,28.02
2019-02-28T12:38:17.372Z,25.77
2019-02-28T12:40:48.538Z,26.45
2019-02-28T12:43:16.152Z,25.30
2019-02-28T12:45:47.685Z,26.87
2019-02-28T12:48:16.175Z,25.25
2019-02-28T12:50:44.616Z,26.87
2019-02-28T12:53:13.062Z,25.60
2019-02-28T12:55:41.612Z,25.72
2019-02-28T12:58:10.339Z,25.80
2019-02-28T13:00:43.023Z,24.67
2019-02-28T13:03:11.683Z,24.70
2019-02-28T13:05:40.183Z,24.52
2019-02-28T13:08:08.790Z,24.50
2019-02-28T13:10:37.294Z,23.85
2019-02-28T13:13:07.544Z,25.27
2019-02-28T13:15:36.468Z,24.80
2019-02-28T13:18:09.036Z,25.10
2019-02-28T13:20:56.342Z,23.35
2019-02-28T13:23:24.794Z,25.85
2019-02-28T13:25:59.108Z,25.05
2019-02-28T13:28:23.741Z,25.88
2019-02-28T13:30:52.695Z,24.85
2019-02-28T13:33:21.251Z,25.40
2019-02-28T13:35:49.731Z,24.95
2019-02-28T13:38:19.740Z,24.55
2019-02-28T13:40:56.404Z,23.75
2019-02-28T13:43:24.819Z,24.37
2019-02-28T13:45:55.956Z,25.55
2019-02-28T13:48:26.532Z,23.92
2019-02-28T13:50:53.992Z,24.00
2019-02-28T13:53:23.425Z,25.65
2019-02-28T13:55:52.748Z,26.57
2019-02-28T13:58:22.377Z,23.77
2019-02-28T14:00:50.949Z,24.00
2019-02-28T14:03:19.374Z,24.23
2019-02-28T14:05:47.831Z,24.55
2019-02-28T14:08:16.471Z,25.52
2019-02-28T14:10:45.198Z,25.70
2019-02-28T14:13:13.619Z,25.32
2019-02-28T14:15:44.274Z,26.12
2019-02-28T14:18:19.214Z,25.30
2019-02-28T14:20:49.083Z,26.45
2019-02-28T14:23:20.705Z,23.67
2019-02-28T14:25:47.844Z,25.40
2019-02-28T14:28:16.269Z,25.17
2019-02-28T14:30:44.885Z,23.62
2019-02-28T14:33:16.176Z,25.92
2019-02-28T14:35:43.512Z,27.65
2019-02-28T14:38:11.935Z,27.70
2019-02-28T14:40:40.479Z,26.97
2019-02-28T14:43:09.039Z,27.70
2019-02-28T14:45:42.941Z,27.27
2019-02-28T14:50:38.582Z,28.83
2019-02-28T14:53:07.078Z,28.20
2019-02-28T14:55:37.384Z,29.72
2019-02-28T14:58:06.059Z,27.70
2019-02-28T15:00:38.907Z,27.07
2019-02-28T15:03:06.140Z,26.50
2019-02-28T15:05:43.194Z,27.40
2019-02-28T15:08:14.859Z,27.77
2019-02-28T15:10:44.637Z,27.45
2019-02-28T15:13:13.115Z,27.70
2019-02-28T15:15:41.668Z,26.20
2019-02-28T15:18:11.860Z,26.23
2019-02-28T15:20:40.620Z,27.77
2019-02-28T15:23:09.133Z,26.80
2019-02-28T15:25:37.638Z,27.52
2019-02-28T15:28:06.106Z,26.73
2019-02-28T15:30:37.293Z,26.17
2019-02-28T15:33:05.862Z,25.12
2019-02-28T15:35:34.390Z,25.68
2019-02-28T15:38:05.737Z,25.15
2019-02-28T15:40:40.520Z,24.77
2019-02-28T15:43:09.329Z,23.65
2019-02-28T15:45:37.877Z,25.43
2019-02-28T15:48:06.499Z,24.07
2019-02-28T15:50:42.366Z,24.30
2019-02-28T15:53:11.314Z,23.90
2019-02-28T15:55:40.971Z,23.30
2019-02-28T15:58:09.797Z,19.87
2019-02-28T16:00:38.709Z,16.27
2019-02-28T16:03:07.157Z,12.70
2019-02-28T16:05:42.509Z,10.23
2019-02-28T16:08:10.505Z,11.12
2019-02-28T16:10:36.309Z,11.25
2019-02-28T16:13:07.138Z,11.60
2019-02-28T16:15:35.884Z,12.88
2019-02-28T16:18:04.583Z,12.37
2019-02-28T16:20:33.031Z,13.18
2019-02-28T16:23:02.246Z,13.20
2019-02-28T16:25:38.035Z,13.70
2019-02-28T16:28:09.807Z,13.13
2019-02-28T16:30:39.401Z,14.18
2019-02-28T16:33:07.983Z,15.98
2019-02-28T16:35:36.599Z,18.75
2019-02-28T16:38:06.408Z,21.97
2019-02-28T16:40:35.320Z,22.90
2019-02-28T16:43:03.863Z,25.10
2019-02-28T16:45:37.593Z,26.33
2019-02-28T16:48:07.449Z,27.67
2019-02-28T16:50:36.258Z,27.32
2019-02-28T16:53:04.930Z,28.40
2019-02-28T16:55:33.600Z,27.42
2019-02-28T16:58:02.107Z,26.15
2019-02-28T17:00:30.674Z,26.37
2019-02-28T17:02:59.142Z,25.08
2019-02-28T17:05:28.381Z,24.37
2019-02-28T17:07:57.335Z,23.27
2019-02-28T17:10:36.353Z,20.27
2019-02-28T17:13:19.268Z,19.23
2019-02-28T17:16:02.461Z,17.55
2019-02-28T17:21:03.520Z,13.50
2019-02-28T17:23:33.625Z,12.75
2019-02-28T17:26:02.275Z,12.07
2019-02-28T17:28:49.801Z,10.85
2019-02-28T17:31:35.029Z,10.38
2019-02-28T17:34:03.593Z,9.93
2019-02-28T17:36:32.318Z,10.25
2019-02-28T17:39:00.765Z,10.10
2019-02-28T17:41:29.301Z,10.53
2019-02-28T17:44:17.835Z,10.43
2019-02-28T17:46:49.107Z,10.05
2019-02-28T17:49:42.775Z,10.38
2019-02-28T17:52:20.144Z,9.95
2019-02-28T17:55:11.483Z,10.72
2019-02-28T17:57:43.019Z,28.60
2019-02-28T18:00:37.953Z,10.55
2019-02-28T18:03:30.408Z,10.75
2019-02-28T18:06:23.058Z,10.13
2019-02-28T18:09:06.455Z,10.50
2019-02-28T18:11:54.576Z,10.53
2019-02-28T18:14:50.006Z,11.35
2019-02-28T18:17:27.010Z,11.38
2019-02-28T18:20:16.058Z,10.58
2019-02-28T18:22:51.967Z,10.55
2019-02-28T18:25:23.782Z,12.85
2019-02-28T18:28:18.872Z,10.48
2019-02-28T18:31:14.397Z,10.23
2019-02-28T18:33:45.735Z,10.80
2019-02-28T18:36:16.620Z,10.13
2019-02-28T18:38:45.096Z,9.98
2019-02-28T18:41:13.645Z,10.53
2019-02-28T18:43:42.082Z,11.10
2019-02-28T18:46:10.522Z,11.30
2019-02-28T18:48:38.987Z,11.03
2019-02-28T18:51:07.477Z,11.53
2019-02-28T18:53:35.933Z,10.98
2019-02-28T18:56:04.528Z,11.78
2019-02-28T18:58:33.150Z,11.65
2019-02-28T19:01:01.587Z,11.80
2019-02-28T19:03:30.023Z,13.13
2019-02-28T19:05:58.464Z,11.95
2019-02-28T19:08:26.916Z,12.65
2019-02-28T19:10:55.379Z,13.30
2019-02-28T19:13:23.811Z,12.40
2019-02-28T19:15:54.910Z,13.45
2019-02-28T19:18:24.899Z,12.90
2019-02-28T19:20:53.321Z,12.88
2019-02-28T19:23:21.783Z,13.10
2019-02-28T19:25:50.615Z,13.03
2019-02-28T19:28:19.127Z,12.53
2019-02-28T19:30:47.559Z,14.75
2019-02-28T19:33:16.012Z,13.30
2019-02-28T19:35:44.491Z,12.53
2019-02-28T19:38:12.982Z,12.28
2019-02-28T19:40:43.061Z,13.20
2019-02-28T19:43:11.545Z,13.83
2019-02-28T19:45:49.324Z,13.62
2019-02-28T19:48:23.398Z,12.00
2019-02-28T19:50:51.940Z,13.62
2019-02-28T19:53:20.376Z,15.20
2019-02-28T19:55:48.798Z,13.78
2019-02-28T19:58:17.312Z,14.95
2019-02-28T20:00:45.902Z,13.58
2019-02-28T20:03:14.432Z,14.45
2019-02-28T20:05:43.091Z,15.10
2019-02-28T20:08:11.574Z,16.30
2019-02-28T20:10:40.262Z,15.70
2019-02-28T20:13:08.681Z,15.85
2019-02-28T20:15:39.052Z,16.17
2019-02-28T20:18:07.515Z,15.98
2019-02-28T20:20:36.113Z,17.20
2019-02-28T20:23:04.886Z,17.15
2019-02-28T20:25:33.440Z,16.42
2019-02-28T20:28:02.061Z,18.48
2019-02-28T20:30:33.566Z,17.48
2019-02-28T20:33:02.055Z,17.77
2019-02-28T20:35:30.568Z,17.85
2019-02-28T20:37:59.132Z,18.45
2019-02-28T20:40:29.720Z,19.07
2019-02-28T20:42:58.275Z,20.48
2019-02-28T20:45:26.766Z,18.67
2019-02-28T20:47:55.189Z,19.27
2019-02-28T20:50:29.617Z,19.90
2019-02-28T20:52:58.143Z,18.32
2019-02-28T20:55:26.595Z,18.95
2019-02-28T20:57:55.078Z,17.42
2019-02-28T21:00:25.314Z,18.12
2019-02-28T21:02:53.850Z,17.32
2019-02-28T21:05:23.843Z,17.57
2019-02-28T21:07:52.669Z,17.70
2019-02-28T21:10:21.161Z,17.25
2019-02-28T21:12:49.694Z,17.12
2019-02-28T21:15:18.161Z,16.10
2019-02-28T21:17:46.606Z,16.02
2019-02-28T21:20:17.158Z,15.20
2019-02-28T21:22:45.589Z,18.70
2019-02-28T21:25:15.400Z,15.38
2019-02-28T21:27:43.920Z,14.60
2019-02-28T21:30:21.015Z,14.35
2019-02-28T21:32:51.960Z,13.62
2019-02-28T21:35:23.740Z,14.18
2019-02-28T21:37:52.232Z,13.60
2019-02-28T21:40:22.072Z,13.38
2019-02-28T21:42:50.632Z,14.00
2019-02-28T21:45:21.742Z,14.18
2019-02-28T21:47:50.543Z,14.45
2019-02-28T21:50:19.105Z,13.40
2019-02-28T21:52:47.748Z,12.45
2019-02-28T21:55:16.922Z,12.65
2019-02-28T21:57:45.437Z,11.85
2019-02-28T22:00:18.884Z,12.20
2019-02-28T22:02:47.331Z,12.50
2019-02-28T22:05:15.842Z,11.53
2019-02-28T22:07:44.627Z,11.18
2019-02-28T22:10:14.759Z,10.60
2019-02-28T22:12:43.198Z,10.78
2019-02-28T22:15:23.562Z,10.43
2019-02-28T22:17:52.050Z,9.50
2019-02-28T22:20:20.553Z,9.88
2019-02-28T22:22:49.022Z,10.80
2019-02-28T22:25:17.846Z,10.20
2019-02-28T22:27:46.313Z,8.23
2019-02-28T22:30:26.917Z,8.13
2019-02-28T22:32:56.995Z,8.53
2019-02-28T22:35:27.108Z,8.05
2019-02-28T22:37:55.717Z,7.60
2019-02-28T22:40:24.134Z,8.55
2019-02-28T22:42:52.585Z,7.87
2019-02-28T22:45:21.082Z,8.40
2019-02-28T22:47:49.497Z,8.18
2019-02-28T22:50:17.973Z,7.62
2019-02-28T22:52:46.399Z,7.62
2019-02-28T22:55:14.931Z,7.03
2019-02-28T22:57:43.383Z,7.10
2019-02-28T23:00:20.584Z,7.42
2019-02-28T23:02:49.013Z,7.67
2019-02-28T23:05:17.507Z,7.33
2019-02-28T23:07:47.231Z,8.13
2019-02-28T23:10:15.700Z,6.78
2019-02-28T23:12:44.178Z,6.60
2019-02-28T23:15:12.640Z,6.65
2019-02-28T23:17:41.123Z,6.65
2019-02-28T23:20:09.660Z,7.22
2019-02-28T23:22:38.106Z,6.72
2019-02-28T23:25:06.961Z,7.28
2019-02-28T23:27:35.417Z,7.00
2019-02-28T23:30:12.555Z,6.58
2019-02-28T23:32:55.970Z,6.45
2019-02-28T23:35:27.458Z,6.75
2019-02-28T23:37:55.919Z,7.12
2019-02-28T23:40:24.347Z,6.90
2019-02-28T23:42:52.778Z,7.22
2019-02-28T23:45:21.241Z,6.70
2019-02-28T23:47:49.712Z,6.65
2019-02-28T23:50:18.124Z,7.45
2019-02-28T23:52:46.586Z,7.60
2019-02-28T23:55:15.085Z,7.12
2019-02-28T23:57:43.567Z,8.38
